createdAt,value
2022-08-26T00:01:06.681Z,99.90
2022-08-26T00:02:40.122Z,99.90
2022-08-26T00:04:13.752Z,99.90
2022-08-26T00:05:50.929Z,99.90
2022-08-26T00:07:24.138Z,99.90
2022-08-26T00:08:57.294Z,99.90
2022-08-26T00:10:30.812Z,99.90
2022-08-26T00:12:05.460Z,99.90
2022-08-26T00:13:38.691Z,99.90
2022-08-26T00:15:13.519Z,99.90
2022-08-26T00:16:47.495Z,99.90
2022-08-26T00:18:22.745Z,99.90
2022-08-26T00:19:55.952Z,99.90
2022-08-26T00:21:30.497Z,99.90
2022-08-26T00:23:03.903Z,99.90
2022-08-26T00:24:37.297Z,99.90
2022-08-26T00:26:11.135Z,99.90
2022-08-26T00:27:45.385Z,99.90
2022-08-26T00:29:19.011Z,99.90
2022-08-26T00:30:55.180Z,99.90
2022-08-26T00:32:28.757Z,99.90
2022-08-26T00:34:01.979Z,99.90
2022-08-26T00:35:36.792Z,99.90
2022-08-26T00:37:15.675Z,99.90
2022-08-26T00:38:49.351Z,99.90
2022-08-26T00:40:25.251Z,99.90
2022-08-26T00:41:58.572Z,99.90
2022-08-26T00:43:47.744Z,99.90
2022-08-26T00:45:21.365Z,99.90
2022-08-26T00:46:59.487Z,99.90
2022-08-26T00:48:36.832Z,99.90
2022-08-26T00:50:15.496Z,99.90
2022-08-26T00:51:51.795Z,99.90
2022-08-26T00:53:31.609Z,99.90
2022-08-26T00:55:08.819Z,99.90
2022-08-26T00:56:47.905Z,99.90
2022-08-26T00:58:23.583Z,99.90
2022-08-26T00:59:59.237Z,99.90
2022-08-26T01:01:32.863Z,99.90
2022-08-26T01:03:07.574Z,99.90
2022-08-26T01:04:45.891Z,99.90
2022-08-26T01:06:21.234Z,99.90
2022-08-26T01:07:54.380Z,99.90
2022-08-26T01:09:28.361Z,99.90
2022-08-26T01:11:03.366Z,99.90
2022-08-26T01:12:42.190Z,99.90
2022-08-26T01:14:16.597Z,99.90
2022-08-26T01:15:55.818Z,99.90
2022-08-26T01:17:29.080Z,99.90
2022-08-26T01:19:10.997Z,99.90
2022-08-26T01:20:57.551Z,99.90
2022-08-26T01:22:34.007Z,99.90
2022-08-26T01:24:09.071Z,99.90
2022-08-26T01:25:46.430Z,99.90
2022-08-26T01:27:22.039Z,99.90
2022-08-26T01:29:00.942Z,99.90
2022-08-26T01:30:35.927Z,99.90
2022-08-26T01:32:12.076Z,99.90
2022-08-26T01:33:53.514Z,99.90
2022-08-26T01:35:27.059Z,99.90
2022-08-26T01:37:05.302Z,99.90
2022-08-26T01:38:39.891Z,99.90
2022-08-26T01:40:21.342Z,99.90
2022-08-26T01:41:56.884Z,99.90
2022-08-26T01:43:32.525Z,99.90
2022-08-26T01:45:11.210Z,99.90
2022-08-26T01:46:45.780Z,99.90
2022-08-26T01:48:24.191Z,99.90
2022-08-26T01:49:59.823Z,99.90
2022-08-26T01:51:37.343Z,99.90
2022-08-26T01:53:13.088Z,99.90
2022-08-26T01:54:50.487Z,99.90
2022-08-26T01:56:25.756Z,99.90
2022-08-26T01:58:14.144Z,99.90
2022-08-26T01:59:47.719Z,99.90
2022-08-26T02:01:22.342Z,99.90
2022-08-26T02:03:18.233Z,99.90
2022-08-26T02:04:55.340Z,99.90
2022-08-26T02:06:28.881Z,99.90
2022-08-26T02:08:03.565Z,99.90
2022-08-26T02:09:41.060Z,99.90
2022-08-26T02:11:18.348Z,99.90
2022-08-26T02:12:53.063Z,99.90
2022-08-26T02:14:30.052Z,99.90
2022-08-26T02:16:04.822Z,99.90
2022-08-26T02:17:44.130Z,99.90
2022-08-26T02:19:23.757Z,99.90
2022-08-26T02:20:57.985Z,99.90
2022-08-26T02:22:31.437Z,99.90
2022-08-26T02:24:10.810Z,99.90
2022-08-26T02:25:50.555Z,99.90
2022-08-26T02:27:32.339Z,99.90
2022-08-26T02:29:12.465Z,99.90
2022-08-26T02:30:48.920Z,99.90
2022-08-26T02:32:22.152Z,99.90
2022-08-26T02:33:56.585Z,99.90
2022-08-26T02:35:29.776Z,99.90
2022-08-26T02:37:05.633Z,99.90
2022-08-26T02:38:38.957Z,99.90
2022-08-26T02:40:16.660Z,99.90
2022-08-26T02:41:50.502Z,99.90
2022-08-26T02:43:31.329Z,99.90
2022-08-26T02:45:09.467Z,99.90
2022-08-26T02:46:47.123Z,99.90
2022-08-26T02:48:21.366Z,99.90
2022-08-26T02:49:54.501Z,99.90
2022-08-26T02:51:28.063Z,99.90
2022-08-26T02:53:01.311Z,99.90
2022-08-26T02:54:34.684Z,99.90
2022-08-26T02:56:09.839Z,99.90
2022-08-26T02:57:42.992Z,99.90
2022-08-26T02:59:16.429Z,99.90
2022-08-26T03:00:52.773Z,99.90
2022-08-26T03:02:27.448Z,99.90
2022-08-26T03:04:02.039Z,99.90
2022-08-26T03:05:35.812Z,99.90
2022-08-26T03:07:10.649Z,99.90
2022-08-26T03:08:44.098Z,99.90
2022-08-26T03:10:17.415Z,99.90
2022-08-26T03:11:50.601Z,99.90
2022-08-26T03:13:23.932Z,99.90
2022-08-26T03:14:57.631Z,99.90
2022-08-26T03:16:34.334Z,99.90
2022-08-26T03:18:08.074Z,99.90
2022-08-26T03:19:41.257Z,99.90
2022-08-26T03:21:16.365Z,99.90
2022-08-26T03:22:53.301Z,99.90
2022-08-26T03:24:29.533Z,99.90
2022-08-26T03:26:02.969Z,99.90
2022-08-26T03:27:36.393Z,99.90
2022-08-26T03:29:32.938Z,99.90
2022-08-26T03:31:05.647Z,99.90
2022-08-26T03:32:41.389Z,99.90
2022-08-26T03:34:14.909Z,99.90
2022-08-26T03:35:50.484Z,99.90
2022-08-26T03:37:24.136Z,99.90
2022-08-26T03:38:58.093Z,99.90
2022-08-26T03:40:33.720Z,99.90
2022-08-26T03:42:06.541Z,99.90
2022-08-26T03:43:40.796Z,99.90
2022-08-26T03:45:15.383Z,99.90
2022-08-26T03:46:48.691Z,99.90
2022-08-26T03:48:24.730Z,99.90
2022-08-26T03:49:59.238Z,99.90
2022-08-26T03:51:33.896Z,99.90
2022-08-26T03:53:12.785Z,99.90
2022-08-26T03:54:46.467Z,99.90
2022-08-26T03:56:20.573Z,99.90
2022-08-26T03:57:53.977Z,99.90
2022-08-26T03:59:27.785Z,99.90
2022-08-26T04:01:01.275Z,99.90
2022-08-26T04:02:35.187Z,99.90
2022-08-26T04:04:09.658Z,99.90
2022-08-26T04:05:53.166Z,99.90
2022-08-26T04:07:26.365Z,99.90
2022-08-26T04:09:01.955Z,99.90
2022-08-26T04:10:38.904Z,99.90
2022-08-26T04:12:12.528Z,99.90
2022-08-26T04:13:45.996Z,99.90
2022-08-26T04:15:21.700Z,99.90
2022-08-26T04:16:56.529Z,99.90
2022-08-26T04:18:36.960Z,99.90
2022-08-26T04:20:13.936Z,99.90
2022-08-26T04:21:53.070Z,99.90
2022-08-26T04:23:26.586Z,99.90
2022-08-26T04:24:59.736Z,99.90
2022-08-26T04:26:37.068Z,99.90
2022-08-26T04:28:14.774Z,99.90
2022-08-26T04:29:49.831Z,99.90
2022-08-26T04:31:26.695Z,99.90
2022-08-26T04:33:12.621Z,99.90
2022-08-26T04:34:46.523Z,99.90
2022-08-26T04:36:21.247Z,99.90
2022-08-26T04:37:55.440Z,99.90
2022-08-26T04:39:28.866Z,99.90
2022-08-26T04:41:03.266Z,99.90
2022-08-26T04:42:38.665Z,99.90
2022-08-26T04:44:12.048Z,99.90
2022-08-26T04:45:45.211Z,99.90
2022-08-26T04:47:18.844Z,99.90
2022-08-26T04:48:52.973Z,99.90
2022-08-26T04:50:26.976Z,99.90
2022-08-26T04:52:01.504Z,99.90
2022-08-26T04:53:35.781Z,99.90
2022-08-26T04:55:09.577Z,99.90
2022-08-26T04:56:45.123Z,99.90
2022-08-26T04:58:19.305Z,99.90
2022-08-26T04:59:53.179Z,99.90
2022-08-26T05:01:26.403Z,99.90
2022-08-26T05:03:00.488Z,99.90
2022-08-26T05:04:34.061Z,99.90
2022-08-26T05:06:08.430Z,99.90
2022-08-26T05:07:44.595Z,99.90
2022-08-26T05:09:19.461Z,99.90
2022-08-26T05:10:56.285Z,99.90
2022-08-26T05:12:29.929Z,99.90
2022-08-26T05:14:03.100Z,99.90
2022-08-26T05:15:36.905Z,99.90
2022-08-26T05:17:10.097Z,99.90
2022-08-26T05:18:48.269Z,99.90
2022-08-26T05:20:25.238Z,99.90
2022-08-26T05:21:59.461Z,99.90
2022-08-26T05:23:36.982Z,99.90
2022-08-26T05:25:10.708Z,99.90
2022-08-26T05:26:45.076Z,99.90
2022-08-26T05:28:21.845Z,99.90
2022-08-26T05:29:58.288Z,99.90
2022-08-26T05:31:33.379Z,99.90
2022-08-26T05:33:07.092Z,99.90
2022-08-26T05:34:40.386Z,99.90
2022-08-26T05:36:18.677Z,99.90
2022-08-26T05:37:51.905Z,99.90
2022-08-26T05:39:26.923Z,99.90
2022-08-26T05:41:00.097Z,99.90
2022-08-26T05:42:33.460Z,99.90
2022-08-26T05:44:09.340Z,99.90
2022-08-26T05:45:46.156Z,99.90
2022-08-26T05:47:19.527Z,99.90
2022-08-26T05:48:52.694Z,99.90
2022-08-26T05:50:26.214Z,99.90
2022-08-26T05:51:59.353Z,99.90
2022-08-26T05:53:33.236Z,99.90
2022-08-26T05:55:09.920Z,99.90
2022-08-26T05:56:43.138Z,99.90
2022-08-26T05:58:17.472Z,99.90
2022-08-26T05:59:51.189Z,99.90
2022-08-26T06:01:26.627Z,99.90
2022-08-26T06:02:59.952Z,99.90
2022-08-26T06:04:33.608Z,99.90
2022-08-26T06:06:08.253Z,99.90
2022-08-26T06:07:58.988Z,99.90
2022-08-26T06:09:32.356Z,99.90
2022-08-26T06:11:12.710Z,99.90
2022-08-26T06:12:51.952Z,99.90
2022-08-26T06:14:25.940Z,99.90
2022-08-26T06:16:00.669Z,99.90
2022-08-26T06:17:33.816Z,99.90
2022-08-26T06:19:10.907Z,99.90
2022-08-26T06:20:57.329Z,99.90
2022-08-26T06:22:48.900Z,99.90
2022-08-26T06:24:39.209Z,99.90
2022-08-26T06:26:16.016Z,99.90
2022-08-26T06:27:49.322Z,99.90
2022-08-26T06:29:24.928Z,99.90
2022-08-26T06:30:58.173Z,99.90
2022-08-26T06:32:31.390Z,99.90
2022-08-26T06:34:10.581Z,99.90
2022-08-26T06:35:45.645Z,99.90
2022-08-26T06:37:18.760Z,99.90
2022-08-26T06:38:57.259Z,99.90
2022-08-26T06:40:31.184Z,99.90
2022-08-26T06:42:07.061Z,99.90
2022-08-26T06:43:40.434Z,99.90
2022-08-26T06:45:13.863Z,99.90
2022-08-26T06:46:47.268Z,99.90
2022-08-26T06:48:24.274Z,99.90
2022-08-26T06:49:59.972Z,99.90
2022-08-26T06:51:35.875Z,99.90
2022-08-26T06:53:10.310Z,99.90
2022-08-26T06:54:44.323Z,99.90
2022-08-26T06:56:19.515Z,99.90
2022-08-26T06:57:54.040Z,99.90
2022-08-26T06:59:27.252Z,99.90
2022-08-26T07:01:03.776Z,99.90
2022-08-26T07:02:46.230Z,99.90
2022-08-26T07:04:21.872Z,99.90
2022-08-26T07:05:55.602Z,99.90
2022-08-26T07:07:29.273Z,99.90
2022-08-26T07:09:04.535Z,99.90
2022-08-26T07:10:37.805Z,99.90
2022-08-26T07:12:12.019Z,99.90
2022-08-26T07:13:47.509Z,1.00
2022-08-26T07:15:24.022Z,1.00
2022-08-26T07:17:04.576Z,60.00
2022-08-26T07:18:38.410Z,1.00
2022-08-26T07:20:12.763Z,1.00
2022-08-26T07:21:45.870Z,1.00
2022-08-26T07:23:20.615Z,1.00
2022-08-26T07:24:55.691Z,10.40
2022-08-26T07:26:31.880Z,99.90
2022-08-26T07:28:05.537Z,99.90
2022-08-26T07:29:42.389Z,99.90
2022-08-26T07:31:17.546Z,90.70
2022-08-26T07:32:50.791Z,58.30
2022-08-26T07:34:24.682Z,32.10
2022-08-26T07:35:59.317Z,46.90
2022-08-26T07:37:35.564Z,69.60
2022-08-26T07:39:12.430Z,99.90
2022-08-26T07:40:46.013Z,99.90
2022-08-26T07:42:20.777Z,99.90
2022-08-26T07:43:54.680Z,99.90
2022-08-26T07:45:29.632Z,99.90
2022-08-26T07:47:02.955Z,78.30
2022-08-26T07:48:46.045Z,40.20
2022-08-26T07:50:19.726Z,38.90
2022-08-26T07:51:53.320Z,32.20
2022-08-26T07:53:26.657Z,99.90
2022-08-26T07:55:02.433Z,99.90
2022-08-26T07:56:35.826Z,99.90
2022-08-26T07:58:09.691Z,99.90
2022-08-26T07:59:42.862Z,97.30
2022-08-26T08:01:17.415Z,46.00
2022-08-26T08:02:51.227Z,62.80
2022-08-26T08:04:26.718Z,63.60
2022-08-26T08:05:59.923Z,51.60
2022-08-26T08:07:45.040Z,69.10
2022-08-26T08:09:18.776Z,59.50
2022-08-26T08:10:52.608Z,60.90
2022-08-26T08:12:26.717Z,70.90
2022-08-26T08:14:00.813Z,75.40
2022-08-26T08:15:35.559Z,27.00
2022-08-26T08:18:48.513Z,33.40
2022-08-26T08:20:23.715Z,54.20
2022-08-26T08:21:56.800Z,61.60
2022-08-26T08:23:30.538Z,36.90
2022-08-26T08:25:06.390Z,24.70
2022-08-26T08:26:41.779Z,27.50
2022-08-26T08:28:14.914Z,28.70
2022-08-26T08:29:48.124Z,33.30
2022-08-26T08:31:45.139Z,24.20
2022-08-26T08:33:18.195Z,40.50
2022-08-26T08:34:51.777Z,21.10
2022-08-26T08:36:25.174Z,24.30
2022-08-26T08:38:05.337Z,31.30
2022-08-26T08:39:40.296Z,27.00
2022-08-26T08:41:52.319Z,29.80
2022-08-26T08:43:37.738Z,52.10
2022-08-26T08:45:13.875Z,78.70
2022-08-26T08:46:50.136Z,86.30
2022-08-26T08:48:28.013Z,94.00
2022-08-26T08:50:07.665Z,93.50
2022-08-26T08:51:48.229Z,95.30
2022-08-26T08:53:26.296Z,94.10
2022-08-26T08:54:59.573Z,91.20
2022-08-26T08:56:36.217Z,60.90
2022-08-26T08:58:19.128Z,10.90
2022-08-26T08:59:58.476Z,5.60
2022-08-26T09:01:44.977Z,3.80
2022-08-26T09:03:32.173Z,4.20
2022-08-26T09:05:15.281Z,3.30
2022-08-26T09:06:51.216Z,6.20
2022-08-26T09:08:29.408Z,3.20
2022-08-26T09:10:05.887Z,6.00
2022-08-26T09:11:39.073Z,6.90
2022-08-26T09:13:16.764Z,11.10
2022-08-26T09:14:51.176Z,13.00
2022-08-26T09:16:31.274Z,27.20
2022-08-26T09:18:12.418Z,20.70
2022-08-26T09:19:52.337Z,17.20
2022-08-26T09:21:26.429Z,63.70
2022-08-26T09:23:00.705Z,80.70
2022-08-26T09:24:48.488Z,99.90
2022-08-26T09:26:29.296Z,99.90
2022-08-26T09:28:06.516Z,99.90
2022-08-26T09:29:44.265Z,99.90
2022-08-26T09:31:25.130Z,99.90
2022-08-26T09:33:03.349Z,99.90
2022-08-26T09:34:59.552Z,99.90
2022-08-26T09:36:41.271Z,99.90
2022-08-26T09:38:34.012Z,99.90
2022-08-26T09:40:20.349Z,99.90
2022-08-26T09:42:06.285Z,99.90
2022-08-26T09:43:40.701Z,99.90
2022-08-26T09:45:15.453Z,99.90
2022-08-26T09:46:57.881Z,99.90
2022-08-26T09:48:34.815Z,99.90
2022-08-26T09:50:28.694Z,99.90
2022-08-26T09:52:09.516Z,99.90
2022-08-26T09:53:54.077Z,99.90
2022-08-26T09:55:27.402Z,99.90
2022-08-26T09:57:22.249Z,99.90
2022-08-26T09:58:56.606Z,99.90
2022-08-26T10:00:33.674Z,99.90
2022-08-26T10:02:24.803Z,99.90
2022-08-26T10:04:07.319Z,99.90
2022-08-26T10:05:45.922Z,99.90
2022-08-26T10:07:38.788Z,99.90
2022-08-26T10:09:17.123Z,99.90
2022-08-26T10:10:53.080Z,99.90
2022-08-26T10:12:27.022Z,99.90
2022-08-26T10:14:06.014Z,99.90
2022-08-26T10:15:50.682Z,99.90
2022-08-26T10:17:30.781Z,99.90
2022-08-26T10:19:09.427Z,99.90
2022-08-26T10:20:52.387Z,99.90
2022-08-26T10:22:31.342Z,99.90
2022-08-26T10:24:05.913Z,99.90
2022-08-26T10:25:49.799Z,99.90
2022-08-26T10:27:35.480Z,99.90
2022-08-26T10:29:14.904Z,99.90
2022-08-26T10:30:53.853Z,99.90
2022-08-26T10:32:35.096Z,99.90
2022-08-26T10:34:12.407Z,99.90
2022-08-26T10:35:53.164Z,99.90
2022-08-26T10:37:36.340Z,99.90
2022-08-26T10:39:14.881Z,99.90
2022-08-26T10:40:56.191Z,99.90
2022-08-26T10:42:37.551Z,99.90
2022-08-26T10:44:13.924Z,99.90
2022-08-26T10:45:51.238Z,99.90
2022-08-26T10:47:31.698Z,99.90
2022-08-26T10:49:10.001Z,99.90
2022-08-26T10:50:47.612Z,99.90
2022-08-26T10:52:29.983Z,99.90
2022-08-26T10:54:08.494Z,99.90
2022-08-26T10:55:51.932Z,99.90
2022-08-26T10:57:35.958Z,99.90
2022-08-26T10:59:18.910Z,99.90
2022-08-26T11:01:17.102Z,99.90
2022-08-26T11:03:00.890Z,99.90
2022-08-26T11:04:52.347Z,99.90
2022-08-26T11:06:28.713Z,99.90
2022-08-26T11:08:30.779Z,99.90
2022-08-26T11:10:12.296Z,99.90
2022-08-26T11:11:50.865Z,99.90
2022-08-26T11:13:57.143Z,99.90
2022-08-26T11:16:08.272Z,99.90
2022-08-26T11:18:00.321Z,99.90
2022-08-26T11:20:01.942Z,99.90
2022-08-26T11:22:05.087Z,99.90
2022-08-26T11:23:50.524Z,99.90
2022-08-26T11:25:29.670Z,99.90
2022-08-26T11:27:02.623Z,99.90
2022-08-26T11:28:40.698Z,99.90
2022-08-26T11:30:56.906Z,99.90
2022-08-26T11:32:50.698Z,99.90
2022-08-26T11:34:55.088Z,99.90
2022-08-26T11:36:57.277Z,99.90
2022-08-26T11:38:31.817Z,99.90
2022-08-26T11:40:09.719Z,99.90
2022-08-26T11:41:44.219Z,99.90
2022-08-26T11:43:22.188Z,99.90
2022-08-26T11:44:58.066Z,99.90
2022-08-26T11:46:35.777Z,99.90
2022-08-26T11:48:19.696Z,99.90
2022-08-26T11:50:13.231Z,99.90
2022-08-26T11:51:48.439Z,35.40
2022-08-26T11:53:22.604Z,42.00
2022-08-26T11:55:04.745Z,50.40
2022-08-26T11:56:38.998Z,59.20
2022-08-26T11:58:14.247Z,13.00
2022-08-26T11:59:47.808Z,26.70
2022-08-26T12:01:27.453Z,83.30
2022-08-26T12:03:09.326Z,40.30
2022-08-26T12:04:47.304Z,24.20
2022-08-26T12:08:09.563Z,35.90
2022-08-26T12:09:53.721Z,44.90
2022-08-26T12:11:28.732Z,93.20
2022-08-26T12:13:04.613Z,93.30
2022-08-26T12:14:39.709Z,90.90
2022-08-26T12:16:13.065Z,92.70
2022-08-26T12:17:52.978Z,95.90
2022-08-26T12:19:32.838Z,95.70
2022-08-26T12:21:16.097Z,99.90
2022-08-26T12:22:52.360Z,99.90
2022-08-26T12:24:26.254Z,99.90
2022-08-26T12:26:06.702Z,91.80
2022-08-26T12:27:42.726Z,90.60
2022-08-26T12:29:26.921Z,96.70
2022-08-26T12:31:02.190Z,97.80
2022-08-26T12:32:36.053Z,89.80
2022-08-26T12:34:12.768Z,80.70
2022-08-26T12:35:56.739Z,87.90
2022-08-26T12:37:33.403Z,87.30
2022-08-26T12:39:10.673Z,90.20
2022-08-26T12:40:45.233Z,89.70
2022-08-26T12:42:41.958Z,88.20
2022-08-26T12:44:53.905Z,86.50
2022-08-26T12:46:30.148Z,78.10
2022-08-26T12:48:08.245Z,67.40
2022-08-26T12:49:43.894Z,54.30
2022-08-26T12:51:23.323Z,47.70
2022-08-26T12:53:01.123Z,44.80
2022-08-26T12:54:56.847Z,41.30
2022-08-26T12:56:35.506Z,38.30
2022-08-26T12:58:15.069Z,26.80
2022-08-26T12:59:48.156Z,21.80
2022-08-26T13:01:23.647Z,9.50
2022-08-26T13:02:56.952Z,1.00
2022-08-26T13:04:37.969Z,1.00
2022-08-26T13:06:15.582Z,1.00
2022-08-26T13:08:11.551Z,1.00
2022-08-26T13:09:46.089Z,1.00
2022-08-26T13:11:21.957Z,1.00
2022-08-26T13:12:55.188Z,1.00
2022-08-26T13:14:28.295Z,1.00
2022-08-26T13:16:00.543Z,1.00
2022-08-26T13:17:35.812Z,2.00
2022-08-26T13:19:13.166Z,1.00
2022-08-26T13:20:46.345Z,1.00
2022-08-26T13:22:24.210Z,1.00
2022-08-26T13:23:58.392Z,1.00
2022-08-26T13:25:32.890Z,1.00
2022-08-26T13:27:07.890Z,1.00
2022-08-26T13:28:42.116Z,1.00
2022-08-26T13:30:15.620Z,1.00
2022-08-26T13:31:48.987Z,1.00
2022-08-26T13:33:22.755Z,1.00
2022-08-26T13:34:57.380Z,1.00
2022-08-26T13:36:31.537Z,50.20
2022-08-26T13:38:05.009Z,1.00
2022-08-26T13:39:41.759Z,38.80
2022-08-26T13:41:17.123Z,57.40
2022-08-26T13:42:56.798Z,52.20
2022-08-26T13:44:30.038Z,47.90
2022-08-26T13:46:03.286Z,96.00
2022-08-26T13:47:36.440Z,99.90
2022-08-26T13:49:09.902Z,99.90
2022-08-26T13:50:43.062Z,99.90
2022-08-26T13:52:16.720Z,99.90
2022-08-26T13:53:50.194Z,99.90
2022-08-26T13:55:23.608Z,99.90
2022-08-26T13:56:58.081Z,99.90
2022-08-26T13:58:31.334Z,99.90
2022-08-26T14:00:07.468Z,99.90
2022-08-26T14:01:44.320Z,99.90
2022-08-26T14:03:17.518Z,99.90
2022-08-26T14:04:49.809Z,99.90
2022-08-26T14:06:23.148Z,99.90
2022-08-26T14:07:57.025Z,99.90
2022-08-26T14:09:33.458Z,99.90
2022-08-26T14:11:09.012Z,99.90
2022-08-26T14:12:43.812Z,99.90
2022-08-26T14:14:16.955Z,99.90
2022-08-26T14:15:50.859Z,99.90
2022-08-26T14:17:26.200Z,82.00
2022-08-26T14:19:01.242Z,44.90
2022-08-26T14:20:35.873Z,46.30
2022-08-26T14:22:11.020Z,8.90
2022-08-26T14:23:44.191Z,20.10
2022-08-26T14:25:17.623Z,1.00
2022-08-26T14:26:50.769Z,1.00
2022-08-26T14:29:59.466Z,1.00
2022-08-26T14:31:34.654Z,1.00
2022-08-26T14:33:08.079Z,1.00
2022-08-26T14:34:42.763Z,1.00
2022-08-26T14:36:32.274Z,1.00
2022-08-26T14:38:05.721Z,1.00
2022-08-26T14:39:38.812Z,1.00
2022-08-26T14:41:12.321Z,1.00
2022-08-26T14:42:49.596Z,1.00
2022-08-26T14:44:30.604Z,1.00
2022-08-26T14:46:03.795Z,1.00
2022-08-26T14:47:37.137Z,1.00
2022-08-26T14:49:10.809Z,1.00
2022-08-26T14:50:44.134Z,1.00
2022-08-26T14:52:17.722Z,1.00
2022-08-26T14:54:08.911Z,1.00
2022-08-26T14:55:43.321Z,1.00
2022-08-26T14:57:17.166Z,1.00
2022-08-26T14:58:49.384Z,1.00
2022-08-26T15:00:23.959Z,1.00
2022-08-26T15:01:57.937Z,1.00
2022-08-26T15:03:31.171Z,1.00
2022-08-26T15:05:05.077Z,1.00
2022-08-26T15:06:38.432Z,1.00
2022-08-26T15:08:11.780Z,1.00
2022-08-26T15:09:44.905Z,1.00
2022-08-26T15:11:18.356Z,1.00
2022-08-26T15:12:51.606Z,1.00
2022-08-26T15:14:26.077Z,1.00
2022-08-26T15:16:02.182Z,1.00
2022-08-26T15:17:35.700Z,1.00
2022-08-26T15:19:08.833Z,1.00
2022-08-26T15:20:42.681Z,1.00
2022-08-26T15:22:15.814Z,1.00
2022-08-26T15:23:49.853Z,1.00
2022-08-26T15:25:23.203Z,1.00
2022-08-26T15:26:57.008Z,1.00
2022-08-26T15:28:30.086Z,1.00
2022-08-26T15:30:03.849Z,1.00
2022-08-26T15:31:38.400Z,1.00
2022-08-26T15:33:15.043Z,1.00
2022-08-26T15:34:49.820Z,1.00
2022-08-26T15:36:22.971Z,1.00
2022-08-26T15:37:56.104Z,1.00
2022-08-26T15:39:29.635Z,1.00
2022-08-26T15:41:04.209Z,1.00
2022-08-26T15:42:37.344Z,1.00
2022-08-26T15:44:11.241Z,1.00
2022-08-26T15:45:44.833Z,1.00
2022-08-26T15:47:20.179Z,1.00
2022-08-26T15:48:53.489Z,1.00
2022-08-26T15:50:26.765Z,1.00
2022-08-26T15:51:59.939Z,1.00
2022-08-26T15:53:35.381Z,1.00
2022-08-26T15:55:09.693Z,1.00
2022-08-26T15:56:43.558Z,1.00
2022-08-26T15:58:17.210Z,1.00
2022-08-26T15:59:50.426Z,1.00
2022-08-26T16:01:27.450Z,1.00
2022-08-26T16:03:06.567Z,1.00
2022-08-26T16:04:39.723Z,1.00
2022-08-26T16:06:14.628Z,1.00
2022-08-26T16:07:48.553Z,1.00
2022-08-26T16:09:26.853Z,19.30
2022-08-26T16:11:03.492Z,33.30
2022-08-26T16:12:36.753Z,22.50
2022-08-26T16:14:09.946Z,7.70
2022-08-26T16:15:43.372Z,65.60
2022-08-26T16:17:16.620Z,85.80
2022-08-26T16:18:50.277Z,46.60
2022-08-26T16:20:23.445Z,99.90
2022-08-26T16:21:56.575Z,99.90
2022-08-26T16:23:30.699Z,99.90
2022-08-26T16:25:03.844Z,99.90
2022-08-26T16:26:39.200Z,99.90
2022-08-26T16:28:13.414Z,99.90
2022-08-26T16:29:46.925Z,99.90
2022-08-26T16:31:21.321Z,99.90
2022-08-26T16:32:55.585Z,99.90
2022-08-26T16:34:30.134Z,99.90
2022-08-26T16:36:03.687Z,99.90
2022-08-26T16:37:39.348Z,99.90
2022-08-26T16:39:13.117Z,99.90
2022-08-26T16:40:46.307Z,99.90
2022-08-26T16:42:19.474Z,99.90
2022-08-26T16:43:53.191Z,99.90
2022-08-26T16:45:26.723Z,99.90
2022-08-26T16:46:59.880Z,99.90
2022-08-26T16:48:33.128Z,99.90
2022-08-26T16:50:09.488Z,99.90
2022-08-26T16:51:42.625Z,99.90
2022-08-26T16:53:16.036Z,99.90
2022-08-26T16:54:49.379Z,99.90
2022-08-26T16:56:33.471Z,99.90
2022-08-26T16:58:07.484Z,99.90
2022-08-26T16:59:40.573Z,99.90
2022-08-26T17:01:13.738Z,99.90
2022-08-26T17:02:47.912Z,99.90
2022-08-26T17:04:22.099Z,99.90
2022-08-26T17:05:56.690Z,99.90
2022-08-26T17:07:29.826Z,99.90
2022-08-26T17:09:03.077Z,99.90
2022-08-26T17:10:36.405Z,99.90
2022-08-26T17:12:09.730Z,99.90
2022-08-26T17:13:43.202Z,99.90
2022-08-26T17:15:17.451Z,99.90
2022-08-26T17:16:53.326Z,99.90
2022-08-26T17:18:28.301Z,99.90
2022-08-26T17:20:05.624Z,99.90
2022-08-26T17:21:41.202Z,99.90
2022-08-26T17:23:14.441Z,99.90
2022-08-26T17:24:49.085Z,99.90
2022-08-26T17:26:22.351Z,99.90
2022-08-26T17:29:29.991Z,99.90
2022-08-26T17:31:03.543Z,99.90
2022-08-26T17:32:36.946Z,99.90
2022-08-26T17:34:10.280Z,99.90
2022-08-26T17:35:43.449Z,99.90
2022-08-26T17:37:17.940Z,99.90
2022-08-26T17:38:51.108Z,99.90
2022-08-26T17:40:29.618Z,99.90
2022-08-26T17:42:02.812Z,99.90
2022-08-26T17:43:36.268Z,99.90
2022-08-26T17:45:10.715Z,99.90
2022-08-26T17:46:43.917Z,99.90
2022-08-26T17:48:17.215Z,99.90
2022-08-26T17:49:50.344Z,99.90
2022-08-26T17:51:23.565Z,99.90
2022-08-26T17:52:58.607Z,99.90
2022-08-26T17:54:32.105Z,99.90
2022-08-26T17:56:08.609Z,99.90
2022-08-26T17:57:42.315Z,99.90
2022-08-26T17:59:15.618Z,99.90
2022-08-26T18:00:50.859Z,99.90
2022-08-26T18:02:24.330Z,99.90
2022-08-26T18:04:00.471Z,99.90
2022-08-26T18:05:34.477Z,99.90
2022-08-26T18:07:07.713Z,99.90
2022-08-26T18:08:44.004Z,99.90
2022-08-26T18:10:19.565Z,99.90
2022-08-26T18:11:52.832Z,99.90
2022-08-26T18:13:25.212Z,99.90
2022-08-26T18:14:58.406Z,99.90
2022-08-26T18:16:38.100Z,99.90
2022-08-26T18:18:11.908Z,99.90
2022-08-26T18:19:45.047Z,99.90
2022-08-26T18:21:20.410Z,99.90
2022-08-26T18:22:54.872Z,99.90
2022-08-26T18:24:30.404Z,99.90
2022-08-26T18:26:03.568Z,99.90
2022-08-26T18:27:37.324Z,99.90
2022-08-26T18:29:11.190Z,99.90
2022-08-26T18:30:45.624Z,99.90
2022-08-26T18:32:18.877Z,99.90
2022-08-26T18:33:52.583Z,99.90
2022-08-26T18:35:28.312Z,99.90
2022-08-26T18:37:01.546Z,99.90
2022-08-26T18:38:34.778Z,99.90
2022-08-26T18:40:12.657Z,99.90
2022-08-26T18:41:48.860Z,99.90
2022-08-26T18:43:22.846Z,99.90
2022-08-26T18:44:56.014Z,99.90
2022-08-26T18:46:29.771Z,99.90
2022-08-26T18:48:03.590Z,99.90
2022-08-26T18:49:37.238Z,99.90
2022-08-26T18:51:16.497Z,99.90
2022-08-26T18:52:49.664Z,99.90
2022-08-26T18:54:23.028Z,99.90
2022-08-26T18:55:58.390Z,99.90
2022-08-26T18:57:31.649Z,99.90
2022-08-26T18:59:06.186Z,99.90
2022-08-26T19:00:39.339Z,99.90
2022-08-26T19:02:12.571Z,99.90
2022-08-26T19:03:47.189Z,99.90
2022-08-26T19:05:21.006Z,99.90
2022-08-26T19:06:54.398Z,99.90
2022-08-26T19:08:27.681Z,99.90
2022-08-26T19:10:00.812Z,99.90
2022-08-26T19:11:41.721Z,99.90
2022-08-26T19:13:16.265Z,99.90
2022-08-26T19:14:50.666Z,99.90
2022-08-26T19:16:25.543Z,99.90
2022-08-26T19:17:58.777Z,99.90
2022-08-26T19:19:32.612Z,99.90
2022-08-26T19:21:05.810Z,99.90
2022-08-26T19:22:38.962Z,99.90
2022-08-26T19:24:17.375Z,99.90
2022-08-26T19:25:52.150Z,99.90
2022-08-26T19:27:26.720Z,99.90
2022-08-26T19:28:59.521Z,99.90
2022-08-26T19:30:32.873Z,99.90
2022-08-26T19:32:07.094Z,99.90
2022-08-26T19:33:43.041Z,99.90
2022-08-26T19:35:16.259Z,99.90
2022-08-26T19:36:50.455Z,99.90
2022-08-26T19:38:24.099Z,99.90
2022-08-26T19:39:57.309Z,99.90
2022-08-26T19:41:37.224Z,99.90
2022-08-26T19:43:12.475Z,99.90
2022-08-26T19:45:03.074Z,99.90
2022-08-26T19:48:15.023Z,99.90
2022-08-26T19:49:48.155Z,99.90
2022-08-26T19:51:24.408Z,99.90
2022-08-26T19:52:58.316Z,99.90
2022-08-26T19:54:31.867Z,99.90
2022-08-26T19:56:05.258Z,99.90
2022-08-26T19:57:40.002Z,99.90
2022-08-26T19:59:14.571Z,99.90
2022-08-26T20:00:47.817Z,99.90
2022-08-26T20:02:21.166Z,99.90
2022-08-26T20:05:32.467Z,99.90
2022-08-26T20:07:06.017Z,99.90
2022-08-26T20:08:41.405Z,99.90
2022-08-26T20:10:16.689Z,99.90
2022-08-26T20:11:50.131Z,99.90
2022-08-26T20:13:23.525Z,99.90
2022-08-26T20:14:58.106Z,99.90
2022-08-26T20:16:32.756Z,99.90
2022-08-26T20:18:26.172Z,99.90
2022-08-26T20:20:33.503Z,99.90
2022-08-26T20:22:08.148Z,99.90
2022-08-26T20:23:41.323Z,99.90
2022-08-26T20:25:15.158Z,99.90
2022-08-26T20:26:49.768Z,99.90
2022-08-26T20:28:22.888Z,99.90
2022-08-26T20:29:58.189Z,99.90
2022-08-26T20:31:31.498Z,99.90
2022-08-26T20:33:04.837Z,99.90
2022-08-26T20:34:38.718Z,99.90
2022-08-26T20:36:11.881Z,99.90
2022-08-26T20:37:45.014Z,99.90
2022-08-26T20:39:20.819Z,99.90
2022-08-26T20:40:54.161Z,99.90
2022-08-26T20:42:29.899Z,99.90
2022-08-26T20:44:03.274Z,99.90
2022-08-26T20:45:37.839Z,99.90
2022-08-26T20:47:11.257Z,99.90
2022-08-26T20:48:44.747Z,99.90
2022-08-26T20:50:17.873Z,99.90
2022-08-26T20:51:51.835Z,99.90
2022-08-26T20:53:25.065Z,99.90
2022-08-26T20:54:59.253Z,99.90
2022-08-26T20:56:32.398Z,99.90
2022-08-26T20:58:05.580Z,99.90
2022-08-26T20:59:38.931Z,99.90